Time;durP1;ratioP1;P1;durP2;ratioP2;P2;SDS_P1;SDS_P2;PMS_P1;PMS_P2;Temp;Humidity;BMP_temperature;BMP_pressure;BME280_temperature;BME280_humidity;BME280_pressure;Samples;Min_cycle;Max_cycle;Signal;HPM_P1;HPM_P2
2023/03/30 00:01:39;;;;;;;24.38;16.52;;;10.80;99.90;;;;;;5088739;28;20447;-84
2023/03/30 00:04:25;;;;;;;26.30;15.15;;;10.80;99.90;;;;;;5074493;28;20140;-84
2023/03/30 00:07:11;;;;;;;22.88;14.40;;;10.80;99.90;;;;;;5078027;28;20059;-84
2023/03/30 00:10:01;;;;;;;23.92;14.70;;;10.80;99.90;;;;;;5076646;28;20047;-83
2023/03/30 00:12:49;;;;;;;26.63;14.77;;;10.70;99.90;;;;;;5075730;28;20048;-82
2023/03/30 00:15:35;;;;;;;27.95;14.88;;;10.70;99.90;;;;;;5090279;28;20048;-81
2023/03/30 00:18:21;;;;;;;21.42;14.95;;;10.70;99.90;;;;;;5072372;28;20060;-83
2023/03/30 00:21:11;;;;;;;26.48;15.30;;;10.70;99.90;;;;;;5077111;28;20092;-82
2023/03/30 00:23:57;;;;;;;20.95;14.98;;;10.70;99.90;;;;;;5092231;28;20110;-85
2023/03/30 00:26:43;;;;;;;24.30;16.27;;;10.70;99.90;;;;;;5088906;28;20048;-86
2023/03/30 00:29:29;;;;;;;24.08;15.75;;;10.70;99.90;;;;;;5090621;28;20048;-84
2023/03/30 00:32:16;;;;;;;20.38;13.70;;;10.70;99.90;;;;;;5090568;28;20063;-83
2023/03/30 00:35:04;;;;;;;22.58;14.30;;;10.70;99.90;;;;;;5090791;28;20048;-82
2023/03/30 00:37:50;;;;;;;22.80;13.32;;;10.70;99.90;;;;;;5092310;28;20071;-83
2023/03/30 00:40:37;;;;;;;25.67;14.35;;;10.80;99.90;;;;;;5074514;28;20504;-81
2023/03/30 00:43:24;;;;;;;24.58;13.23;;;10.80;99.90;;;;;;5090702;28;20074;-82
2023/03/30 00:46:10;;;;;;;22.00;14.20;;;10.80;99.90;;;;;;5093027;28;20138;-85
2023/03/30 00:49:03;;;;;;;19.20;13.18;;;10.80;99.90;;;;;;5094049;28;20055;-85
2023/03/30 00:51:50;;;;;;;18.92;12.85;;;10.80;99.90;;;;;;5101277;28;20162;-84
2023/03/30 00:54:37;;;;;;;18.70;11.77;;;10.80;99.90;;;;;;5093883;28;20113;-84
2023/03/30 00:57:25;;;;;;;19.80;11.90;;;10.90;99.90;;;;;;5093779;28;20044;-82
2023/03/30 01:00:12;;;;;;;20.40;11.85;;;10.90;99.90;;;;;;5093824;28;20385;-84
2023/03/30 01:03:02;;;;;;;18.42;11.80;;;10.90;99.90;;;;;;5078364;28;20067;-81
2023/03/30 01:05:51;;;;;;;16.00;11.98;;;10.90;99.90;;;;;;5096607;28;20048;-85
2023/03/30 01:08:38;;;;;;;20.42;11.88;;;10.90;99.90;;;;;;5080324;28;20091;-83
2023/03/30 01:11:25;;;;;;;16.45;11.10;;;10.90;99.90;;;;;;5093114;28;20063;-84
2023/03/30 01:14:14;;;;;;;20.63;11.43;;;11.00;99.90;;;;;;5093396;28;20067;-81
2023/03/30 01:17:24;;;;;;;20.75;11.50;;;10.90;99.90;;;;;;5062650;28;20044;-85
2023/03/30 01:20:51;;;;;;;20.23;11.20;;;10.90;99.90;;;;;;5093796;28;20052;-87
2023/03/30 01:24:06;;;;;;;17.42;10.40;;;11.00;99.90;;;;;;5093888;28;20749;-83
2023/03/30 01:27:08;;;;;;;18.73;10.85;;;11.00;99.90;;;;;;5074024;28;20102;-83
2023/03/30 01:30:17;;;;;;;15.80;8.98;;;11.00;99.90;;;;;;5093073;28;20109;-80
2023/03/30 01:33:22;;;;;;;16.02;9.45;;;11.10;99.90;;;;;;5077734;28;20389;-82
2023/03/30 01:36:18;;;;;;;16.25;9.43;;;11.10;99.90;;;;;;5090454;28;20048;-85
2023/03/30 01:39:27;;;;;;;21.35;10.23;;;11.20;99.90;;;;;;5081616;28;20052;-82
2023/03/30 01:42:47;;;;;;;22.50;8.60;;;11.20;99.90;;;;;;5075182;28;20059;-85
2023/03/30 01:45:50;;;;;;;16.15;8.57;;;11.30;99.90;;;;;;5092445;28;20055;-82
2023/03/30 01:49:06;;;;;;;22.20;8.77;;;11.40;99.90;;;;;;5077012;28;20102;-85
2023/03/30 01:52:17;;;;;;;15.10;8.20;;;11.40;99.90;;;;;;5078777;28;20052;-85
2023/03/30 01:55:21;;;;;;;16.92;8.25;;;11.50;99.90;;;;;;5094897;28;20119;-82
2023/03/30 01:58:19;;;;;;;12.15;7.07;;;11.60;99.90;;;;;;5076154;28;20040;-81
2023/03/30 02:01:06;;;;;;;15.73;7.72;;;11.60;99.90;;;;;;5093186;28;20044;-83
2023/03/30 02:03:57;;;;;;;16.23;7.38;;;11.70;99.90;;;;;;5090779;28;20496;-83
2023/03/30 02:06:48;;;;;;;14.05;6.88;;;11.70;99.90;;;;;;5091410;28;20044;-81
2023/03/30 02:09:37;;;;;;;20.67;8.60;;;11.70;99.90;;;;;;5079077;28;20044;-85
2023/03/30 02:12:28;;;;;;;13.70;7.70;;;11.70;99.90;;;;;;5073136;28;20059;-81
2023/03/30 02:15:16;;;;;;;15.35;7.28;;;11.70;99.90;;;;;;5091547;28;20056;-82
2023/03/30 02:18:03;;;;;;;11.57;6.22;;;11.70;99.90;;;;;;5072544;28;20044;-82
2023/03/30 02:20:49;;;;;;;11.75;7.13;;;11.70;99.90;;;;;;5089326;28;20504;-83
2023/03/30 02:23:39;;;;;;;13.30;6.20;;;11.70;99.90;;;;;;5090777;28;20052;-81
2023/03/30 02:26:28;;;;;;;16.25;6.72;;;11.70;99.90;;;;;;5072446;28;20047;-85
2023/03/30 02:29:15;;;;;;;11.30;6.07;;;11.60;99.90;;;;;;5074720;28;20500;-81
2023/03/30 02:32:01;;;;;;;12.95;6.00;;;11.60;99.90;;;;;;5090961;28;20052;-82
2023/03/30 02:35:04;;;;;;;14.77;6.03;;;11.60;99.90;;;;;;5091139;28;20040;-82
2023/03/30 02:38:06;;;;;;;10.95;5.82;;;11.60;99.90;;;;;;5091016;28;20160;-85
2023/03/30 02:41:07;;;;;;;13.45;6.95;;;11.60;99.90;;;;;;5076974;28;20109;-83
2023/03/30 02:44:20;;;;;;;13.63;5.35;;;11.60;99.90;;;;;;5090056;28;20054;-85
2023/03/30 02:47:34;;;;;;;15.07;5.20;;;11.50;99.90;;;;;;5089802;28;20044;-81
2023/03/30 02:50:50;;;;;;;18.52;5.78;;;11.50;99.90;;;;;;5089582;28;20606;-81
2023/03/30 02:54:03;;;;;;;13.30;5.00;;;11.50;99.90;;;;;;5062673;28;20048;-83
2023/03/30 02:57:11;;;;;;;11.93;4.90;;;11.60;99.90;;;;;;5071046;28;20055;-82
2023/03/30 03:00:04;;;;;;;11.40;5.10;;;11.60;99.90;;;;;;5074433;28;20047;-82
2023/03/30 03:02:57;;;;;;;9.98;4.40;;;11.60;99.90;;;;;;5090053;28;20494;-83
2023/03/30 03:05:43;;;;;;;17.73;8.32;;;11.50;99.90;;;;;;5090368;28;20048;-81
2023/03/30 03:08:34;;;;;;;11.32;4.60;;;11.60;99.90;;;;;;5077029;28;20051;-81
2023/03/30 03:11:20;;;;;;;16.33;4.50;;;11.60;99.90;;;;;;5091583;28;20050;-81
2023/03/30 03:14:06;;;;;;;11.65;4.40;;;11.60;99.90;;;;;;5089889;28;20496;-86
2023/03/30 03:16:53;;;;;;;14.15;4.30;;;11.60;99.90;;;;;;5088905;28;20495;-81
2023/03/30 03:19:40;;;;;;;13.10;4.82;;;11.50;99.90;;;;;;5075891;28;20040;-85
2023/03/30 03:22:26;;;;;;;14.05;4.38;;;11.50;99.90;;;;;;5090420;28;20399;-84
2023/03/30 03:25:12;;;;;;;13.43;4.40;;;11.50;99.90;;;;;;5093451;28;20048;-81
2023/03/30 03:27:58;;;;;;;14.88;4.47;;;11.50;99.90;;;;;;5088529;28;20173;-81
2023/03/30 03:30:44;;;;;;;11.27;4.57;;;11.50;99.90;;;;;;5089937;28;20048;-82
2023/03/30 03:33:31;;;;;;;15.30;4.43;;;11.40;99.90;;;;;;5089595;28;20052;-83
2023/03/30 03:36:18;;;;;;;12.93;4.15;;;11.40;99.90;;;;;;5093750;28;20084;-81
2023/03/30 03:39:04;;;;;;;13.23;5.63;;;11.30;99.90;;;;;;5089967;28;20140;-83
2023/03/30 03:41:50;;;;;;;11.75;5.22;;;11.20;99.90;;;;;;5057603;28;20139;-85
2023/03/30 03:44:37;;;;;;;12.80;4.03;;;11.20;99.90;;;;;;5061767;28;20051;-81
2023/03/30 03:47:23;;;;;;;10.43;4.13;;;11.20;99.90;;;;;;5073584;28;20048;-83
2023/03/30 03:50:09;;;;;;;13.15;4.20;;;11.10;99.90;;;;;;5071333;28;20056;-80
2023/03/30 03:52:55;;;;;;;13.90;5.03;;;11.10;99.90;;;;;;5094275;28;20113;-81
2023/03/30 03:55:43;;;;;;;12.35;4.30;;;11.10;99.90;;;;;;5088735;28;20052;-82
2023/03/30 03:58:29;;;;;;;15.25;4.82;;;11.00;99.90;;;;;;5088034;28;20051;-81
2023/03/30 04:01:16;;;;;;;17.00;5.22;;;10.90;99.90;;;;;;5069793;28;20044;-81
2023/03/30 04:04:02;;;;;;;14.75;5.38;;;10.90;99.90;;;;;;5089225;28;20056;-80
2023/03/30 04:06:48;;;;;;;16.15;5.10;;;10.90;99.90;;;;;;5089261;28;20127;-82
2023/03/30 04:09:34;;;;;;;13.50;5.20;;;10.90;99.90;;;;;;5091389;28;20408;-81
2023/03/30 04:12:20;;;;;;;17.80;4.53;;;10.90;99.90;;;;;;5061257;28;20040;-82
2023/03/30 04:15:07;;;;;;;20.00;5.60;;;10.90;99.90;;;;;;5088161;28;20502;-82
2023/03/30 04:17:57;;;;;;;23.25;5.70;;;10.90;99.90;;;;;;5075914;28;20131;-83
2023/03/30 04:20:43;;;;;;;19.20;6.32;;;10.90;99.90;;;;;;5091089;28;20061;-84
2023/03/30 04:23:32;;;;;;;15.93;6.95;;;11.00;99.90;;;;;;5098705;28;20040;-81
2023/03/30 04:26:18;;;;;;;14.55;5.15;;;11.00;99.90;;;;;;5093440;28;20062;-82
2023/03/30 04:29:05;;;;;;;16.25;5.13;;;11.10;99.90;;;;;;5092343;28;20047;-81
2023/03/30 04:31:51;;;;;;;18.33;4.72;;;11.10;99.90;;;;;;5092479;28;20400;-82
2023/03/30 04:34:43;;;;;;;16.95;4.82;;;11.10;99.90;;;;;;5074947;28;20055;-83
2023/03/30 04:37:30;;;;;;;16.00;5.55;;;11.10;99.90;;;;;;5081624;28;20071;-82
2023/03/30 04:40:16;;;;;;;14.55;5.72;;;11.10;99.90;;;;;;5093685;28;20044;-82
2023/03/30 04:43:02;;;;;;;12.48;4.60;;;11.10;99.90;;;;;;5075263;28;20055;-82
2023/03/30 04:45:53;;;;;;;11.98;5.32;;;11.10;99.90;;;;;;5074332;28;20063;-82
2023/03/30 04:48:39;;;;;;;22.08;5.78;;;11.20;99.90;;;;;;5091923;28;20055;-84
2023/03/30 04:51:26;;;;;;;16.73;4.95;;;11.20;99.90;;;;;;5099575;28;20056;-81
2023/03/30 04:54:13;;;;;;;11.32;4.68;;;11.10;99.90;;;;;;5092523;28;20048;-82
2023/03/30 04:56:59;;;;;;;27.20;6.18;;;11.20;99.90;;;;;;5090880;28;20087;-81
2023/03/30 04:59:45;;;;;;;22.10;4.93;;;11.20;99.90;;;;;;5091640;28;20052;-81
2023/03/30 05:02:32;;;;;;;19.35;6.07;;;11.20;99.90;;;;;;5058963;28;20518;-80
2023/03/30 05:05:18;;;;;;;17.25;5.07;;;11.20;99.90;;;;;;5099904;28;20060;-83
2023/03/30 05:08:05;;;;;;;22.30;4.82;;;11.20;99.90;;;;;;5091268;28;20048;-81
2023/03/30 05:10:51;;;;;;;14.93;4.13;;;11.20;99.90;;;;;;5077803;28;20044;-82
2023/03/30 05:13:39;;;;;;;12.40;3.83;;;11.20;99.90;;;;;;5091990;28;20040;-82
2023/03/30 05:16:25;;;;;;;17.25;4.28;;;11.20;99.90;;;;;;5061030;28;20068;-84
2023/03/30 05:19:11;;;;;;;17.60;4.97;;;11.30;99.90;;;;;;5098339;28;20520;-82
2023/03/30 05:21:58;;;;;;;20.33;4.90;;;11.30;99.90;;;;;;5091781;28;20564;-81
2023/03/30 05:24:44;;;;;;;18.25;5.55;;;11.40;99.90;;;;;;5092751;28;20048;-82
2023/03/30 05:27:30;;;;;;;21.33;4.93;;;11.40;99.90;;;;;;5091515;28;20159;-81
2023/03/30 05:30:16;;;;;;;25.80;5.20;;;11.40;99.90;;;;;;5091792;28;20069;-83
2023/03/30 05:33:02;;;;;;;12.35;3.78;;;11.30;99.90;;;;;;5095731;28;20646;-82
2023/03/30 05:35:48;;;;;;;11.75;4.45;;;11.30;99.90;;;;;;5091011;28;20130;-81
2023/03/30 05:38:35;;;;;;;12.75;5.13;;;11.30;99.90;;;;;;5092041;28;20044;-82
2023/03/30 05:41:21;;;;;;;13.13;3.38;;;11.30;99.90;;;;;;5092978;28;20044;-81
2023/03/30 05:44:07;;;;;;;14.65;3.65;;;11.30;99.90;;;;;;5092632;28;20040;-84
2023/03/30 05:46:53;;;;;;;18.60;4.00;;;11.30;99.90;;;;;;5098955;28;20555;-85
2023/03/30 05:49:39;;;;;;;16.83;3.72;;;11.30;99.90;;;;;;5076821;28;20047;-83
2023/03/30 05:52:25;;;;;;;14.43;3.92;;;11.30;99.90;;;;;;5091640;28;20077;-85
2023/03/30 05:55:12;;;;;;;19.77;4.97;;;11.30;99.90;;;;;;5090417;28;20055;-83
2023/03/30 05:57:58;;;;;;;16.27;4.57;;;11.30;99.90;;;;;;5093559;28;20044;-84
2023/03/30 06:00:47;;;;;;;17.25;4.03;;;11.30;99.90;;;;;;5093049;28;20044;-85
2023/03/30 06:03:33;;;;;;;14.25;4.07;;;11.30;99.90;;;;;;5092830;28;20165;-82
2023/03/30 06:06:19;;;;;;;19.00;4.82;;;11.40;99.90;;;;;;5091829;28;20164;-85
2023/03/30 06:09:05;;;;;;;19.35;3.67;;;11.40;99.90;;;;;;5090832;28;20131;-82
2023/03/30 06:11:51;;;;;;;21.50;4.18;;;11.40;99.90;;;;;;5077345;28;20111;-84
2023/03/30 06:14:37;;;;;;;24.00;3.80;;;11.40;99.90;;;;;;5090272;28;20448;-84
2023/03/30 06:17:24;;;;;;;17.00;5.03;;;11.40;99.90;;;;;;5090591;28;20142;-82
2023/03/30 06:20:11;;;;;;;16.70;4.57;;;11.50;99.90;;;;;;5090751;28;20079;-83
2023/03/30 06:22:57;;;;;;;17.23;4.00;;;11.50;99.90;;;;;;5090453;28;20047;-84
2023/03/30 06:25:51;;;;;;;17.95;3.90;;;11.50;99.90;;;;;;5090460;28;20134;-83
2023/03/30 06:28:37;;;;;;;16.92;3.67;;;11.50;99.90;;;;;;5095104;28;20048;-82
2023/03/30 06:31:24;;;;;;;12.55;4.07;;;11.50;99.90;;;;;;5076105;28;20522;-81
2023/03/30 06:34:10;;;;;;;10.95;3.42;;;11.50;99.90;;;;;;5089384;28;20040;-82
2023/03/30 06:36:56;;;;;;;14.50;3.60;;;11.60;99.90;;;;;;5089672;28;20048;-84
2023/03/30 06:39:44;;;;;;;12.77;3.65;;;11.50;99.90;;;;;;5089977;28;20518;-81
2023/03/30 06:42:30;;;;;;;16.67;3.28;;;11.60;99.90;;;;;;5075310;28;20084;-84
2023/03/30 06:45:16;;;;;;;22.85;5.30;;;11.60;99.90;;;;;;5090100;28;20084;-84
2023/03/30 06:48:03;;;;;;;14.50;4.07;;;11.60;99.90;;;;;;5089858;28;20048;-82
2023/03/30 06:50:50;;;;;;;11.85;3.03;;;11.60;99.90;;;;;;5089680;28;20044;-83
2023/03/30 06:53:36;;;;;;;21.42;4.47;;;11.60;99.90;;;;;;5089565;28;20043;-81
2023/03/30 06:56:22;;;;;;;24.20;4.32;;;11.60;99.90;;;;;;5078563;28;20059;-84
2023/03/30 06:59:08;;;;;;;18.15;3.58;;;11.60;99.90;;;;;;5091673;28;20052;-84
2023/03/30 07:01:54;;;;;;;17.85;4.25;;;11.70;99.90;;;;;;5092633;28;20040;-84
2023/03/30 07:04:41;;;;;;;19.10;3.55;;;11.70;99.90;;;;;;5090457;28;20191;-82
2023/03/30 07:07:27;;;;;;;22.88;4.05;;;11.70;99.90;;;;;;5089521;28;20082;-81
2023/03/30 07:10:14;;;;;;;12.85;3.92;;;11.80;99.90;;;;;;5094892;28;20056;-83
2023/03/30 07:13:00;;;;;;;14.27;3.63;;;11.70;99.90;;;;;;5090386;28;20101;-83
2023/03/30 07:15:46;;;;;;;27.67;4.47;;;11.80;99.90;;;;;;5072886;28;20450;-84
2023/03/30 07:18:34;;;;;;;21.20;4.43;;;11.80;99.90;;;;;;5073646;28;20054;-82
2023/03/30 07:21:20;;;;;;;18.25;4.03;;;11.80;99.90;;;;;;5089743;28;20132;-82
2023/03/30 07:24:07;;;;;;;19.95;4.10;;;11.70;99.90;;;;;;5097999;28;20040;-82
2023/03/30 07:26:53;;;;;;;26.45;4.55;;;11.70;99.90;;;;;;5089720;28;20051;-84
2023/03/30 07:29:39;;;;;;;17.83;4.20;;;11.70;99.90;;;;;;5075257;28;20127;-83
2023/03/30 07:32:26;;;;;;;31.70;5.57;;;11.70;99.90;;;;;;5076240;28;20086;-86
2023/03/30 07:35:12;;;;;;;20.17;3.70;;;11.60;99.90;;;;;;5090834;28;20174;-86
2023/03/30 07:37:58;;;;;;;28.42;5.28;;;11.60;99.90;;;;;;5088840;28;20422;-83
2023/03/30 07:40:44;;;;;;;18.13;3.90;;;11.60;99.90;;;;;;5081934;28;20044;-85
2023/03/30 07:43:30;;;;;;;17.25;4.03;;;11.60;99.90;;;;;;5090449;28;20576;-85
2023/03/30 07:46:16;;;;;;;25.45;7.60;;;11.60;99.90;;;;;;5089721;28;20040;-84
2023/03/30 07:49:02;;;;;;;23.42;4.97;;;11.60;99.90;;;;;;5090161;28;20056;-86
2023/03/30 07:51:49;;;;;;;22.80;4.45;;;11.60;99.90;;;;;;5088908;28;20135;-84
2023/03/30 07:54:35;;;;;;;21.15;5.00;;;11.60;99.90;;;;;;5089887;28;20048;-84
2023/03/30 07:57:21;;;;;;;31.73;4.70;;;11.60;99.90;;;;;;5093095;28;20054;-82
2023/03/30 08:00:09;;;;;;;35.92;8.20;;;11.50;99.90;;;;;;5083107;28;20162;-84
2023/03/30 08:02:55;;;;;;;23.20;4.20;;;11.50;99.90;;;;;;5091613;28;20072;-85
2023/03/30 08:05:41;;;;;;;26.90;4.65;;;11.50;99.90;;;;;;5068684;28;20052;-84
2023/03/30 08:08:27;;;;;;;22.95;4.65;;;11.50;99.90;;;;;;5069447;28;20453;-85
2023/03/30 08:11:15;;;;;;;34.67;4.95;;;11.50;99.90;;;;;;5080962;28;20060;-82
2023/03/30 08:14:02;;;;;;;23.67;5.75;;;11.50;99.90;;;;;;5089971;28;20056;-82
2023/03/30 08:16:54;;;;;;;27.98;5.55;;;11.50;99.90;;;;;;5089103;28;20052;-85
2023/03/30 08:19:40;;;;;;;23.50;5.50;;;11.50;99.90;;;;;;5110023;28;20046;-86
2023/03/30 08:22:26;;;;;;;21.40;4.57;;;11.40;99.90;;;;;;5112229;28;20101;-84
2023/03/30 08:25:12;;;;;;;27.15;5.07;;;11.20;99.90;;;;;;5111720;28;20464;-81
2023/03/30 08:27:58;;;;;;;33.28;6.75;;;11.10;99.90;;;;;;5109275;28;20055;-84
2023/03/30 08:30:45;;;;;;;35.95;6.25;;;11.00;99.90;;;;;;5109307;28;20044;-82
2023/03/30 08:33:31;;;;;;;28.55;6.05;;;11.00;99.90;;;;;;5110646;28;20051;-85
2023/03/30 08:36:19;;;;;;;26.98;5.47;;;10.90;99.90;;;;;;5095804;28;20044;-86
2023/03/30 08:39:05;;;;;;;40.05;7.03;;;10.90;99.90;;;;;;5111172;28;20054;-83
2023/03/30 08:42:07;;;;;;;28.80;6.32;;;10.90;99.90;;;;;;5115800;28;20472;-83
2023/03/30 08:44:56;;;;;;;31.52;6.07;;;11.00;99.90;;;;;;5108845;28;20051;-87
2023/03/30 08:47:47;;;;;;;28.98;5.90;;;11.10;99.90;;;;;;5108132;28;20100;-84
2023/03/30 08:50:35;;;;;;;27.88;5.32;;;11.20;99.90;;;;;;5111097;28;20051;-83
2023/03/30 08:53:21;;;;;;;33.42;5.55;;;11.40;99.90;;;;;;5094439;28;20052;-85
2023/03/30 08:56:15;;;;;;;22.00;4.65;;;11.60;99.90;;;;;;5114977;28;20399;-83
2023/03/30 08:59:25;;;;;;;36.47;6.47;;;11.70;99.90;;;;;;5109744;28;20139;-85
2023/03/30 09:02:35;;;;;;;26.90;5.82;;;11.80;99.90;;;;;;5088964;28;20044;-82
2023/03/30 09:05:29;;;;;;;22.55;5.10;;;11.80;99.90;;;;;;5108733;28;20080;-83
2023/03/30 09:08:27;;;;;;;26.23;5.25;;;11.80;99.90;;;;;;5103227;28;20059;-86
2023/03/30 09:11:23;;;;;;;21.05;3.75;;;11.90;99.90;;;;;;5094906;28;20090;-81
2023/03/30 09:14:16;;;;;;;;;;;11.90;99.90;;;;;;5098249;28;20042;-83
2023/03/30 09:17:15;;;;;;;18.10;3.50;;;12.00;99.90;;;;;;5114080;28;19957;-83
2023/03/30 09:20:31;;;;;;;18.27;3.47;;;12.10;99.90;;;;;;5114004;28;20040;-84
2023/03/30 09:23:17;;;;;;;22.52;4.88;;;12.10;99.90;;;;;;5089356;28;20407;-85
2023/03/30 09:26:18;;;;;;;26.38;4.47;;;12.10;99.90;;;;;;5115926;28;20074;-84
2023/03/30 09:29:17;;;;;;;17.15;3.33;;;12.10;99.90;;;;;;5113223;28;20056;-83
2023/03/30 09:32:10;;;;;;;20.02;4.18;;;12.00;99.90;;;;;;5097288;28;20054;-82
2023/03/30 09:35:17;;;;;;;20.55;4.40;;;12.00;99.90;;;;;;5112938;28;20076;-83
2023/03/30 09:38:03;;;;;;;23.20;3.95;;;12.10;99.90;;;;;;5114875;28;20047;-87
2023/03/30 09:41:11;;;;;;;20.05;4.55;;;12.20;99.90;;;;;;5121577;28;20043;-86
2023/03/30 09:43:59;;;;;;;24.92;4.40;;;12.20;99.90;;;;;;5115946;28;20513;-87
2023/03/30 09:46:45;;;;;;;19.42;2.85;;;12.30;99.90;;;;;;5117621;28;20515;-86
2023/03/30 09:49:38;;;;;;;15.20;3.47;;;12.30;99.90;;;;;;5114332;28;20116;-86
2023/03/30 09:52:27;;;;;;;16.85;2.83;;;12.20;99.90;;;;;;5115281;28;20371;-84
2023/03/30 09:55:22;;;;;;;19.40;3.42;;;12.10;99.90;;;;;;5113865;28;20047;-85
2023/03/30 09:58:13;;;;;;;29.60;4.47;;;12.00;99.90;;;;;;5117003;28;20040;-87
2023/03/30 10:01:07;;;;;;;27.90;4.78;;;12.00;99.90;;;;;;5112176;28;20048;-84
2023/03/30 10:04:11;;;;;;;19.35;3.70;;;11.90;99.90;;;;;;5110476;28;20083;-82
2023/03/30 10:06:57;;;;;;;21.38;3.72;;;11.80;99.90;;;;;;5096120;28;20412;-84
2023/03/30 10:09:43;;;;;;;20.13;3.63;;;11.70;99.90;;;;;;5110699;28;20105;-82
2023/03/30 10:12:30;;;;;;;25.00;3.83;;;11.70;99.90;;;;;;5111533;28;20099;-84
2023/03/30 10:15:23;;;;;;;21.75;4.35;;;11.80;99.90;;;;;;5106494;28;20134;-82
2023/03/30 10:18:36;;;;;;;23.30;4.85;;;11.80;99.90;;;;;;5110087;28;20043;-84
2023/03/30 10:21:26;;;;;;;18.80;3.78;;;11.80;99.90;;;;;;5111371;28;20051;-88
2023/03/30 10:24:20;;;;;;;15.32;3.22;;;11.80;99.90;;;;;;5111227;28;20058;-85
2023/03/30 10:27:12;;;;;;;15.35;3.65;;;11.90;99.90;;;;;;5110256;28;20043;-85
2023/03/30 10:30:08;;;;;;;30.70;6.32;;;11.90;99.90;;;;;;5112415;28;20108;-84
2023/03/30 10:32:57;;;;;;;19.50;4.20;;;11.90;99.90;;;;;;5114972;28;20051;-86
2023/03/30 10:35:47;;;;;;;20.55;4.10;;;11.90;99.90;;;;;;5116116;28;20099;-83
2023/03/30 10:38:34;;;;;;;30.58;4.93;;;11.90;99.90;;;;;;5110626;28;20066;-84
2023/03/30 10:41:22;;;;;;;22.77;4.65;;;11.90;99.90;;;;;;5079068;28;20044;-86
2023/03/30 10:44:37;;;;;;;25.13;5.22;;;11.90;99.90;;;;;;5094538;28;20509;-86
2023/03/30 10:47:38;;;;;;;22.10;3.92;;;12.00;99.90;;;;;;5113962;28;20146;-83
2023/03/30 10:50:50;;;;;;;20.10;4.47;;;12.00;99.90;;;;;;5120027;28;20071;-85
2023/03/30 10:53:47;;;;;;;26.23;4.65;;;12.00;99.90;;;;;;5099079;28;20139;-85
2023/03/30 10:56:51;;;;;;;25.48;6.32;;;11.90;99.90;;;;;;5112377;28;20058;-84
2023/03/30 11:00:10;;;;;;;23.00;4.65;;;11.80;99.90;;;;;;5110433;28;20048;-83
2023/03/30 11:03:08;;;;;;;27.10;5.05;;;11.90;99.90;;;;;;5112635;28;20039;-86
2023/03/30 11:06:03;;;;;;;23.35;5.50;;;12.10;99.90;;;;;;5096140;28;20043;-86
2023/03/30 11:08:53;;;;;;;21.35;3.95;;;12.50;99.90;;;;;;5114787;28;20109;-85
2023/03/30 11:11:50;;;;;;;32.10;5.85;;;12.50;99.90;;;;;;5111544;28;20147;-83
2023/03/30 11:14:51;;;;;;;24.58;5.65;;;12.30;99.90;;;;;;5110473;28;20483;-82
2023/03/30 11:17:52;;;;;;;22.55;5.35;;;12.30;99.90;;;;;;5110592;28;20071;-85
2023/03/30 11:20:52;;;;;;;35.13;6.70;;;12.30;99.90;;;;;;5112638;28;20438;-88
2023/03/30 11:23:53;;;;;;;29.13;5.53;;;12.40;99.90;;;;;;5101634;28;20047;-86
2023/03/30 11:26:54;;;;;;;34.30;5.32;;;12.40;99.90;;;;;;5112687;28;20050;-81
2023/03/30 11:29:58;;;;;;;29.92;5.88;;;12.40;99.90;;;;;;5093745;28;20047;-84
2023/03/30 11:32:57;;;;;;;32.05;4.80;;;12.60;99.90;;;;;;5089455;28;20515;-86
2023/03/30 11:35:52;;;;;;;32.25;5.63;;;12.80;99.90;;;;;;5090032;28;20047;-87
2023/03/30 11:38:57;;;;;;;22.33;3.88;;;12.90;99.90;;;;;;5095368;28;20070;-84
2023/03/30 11:41:54;;;;;;;23.50;6.38;;;12.90;99.90;;;;;;5090220;28;20059;-83
2023/03/30 11:44:41;;;;;;;26.50;4.90;;;13.10;99.90;;;;;;5091994;28;20104;-83
2023/03/30 11:47:58;;;;;;;30.65;4.82;;;13.40;99.90;;;;;;5091348;28;20048;-84
2023/03/30 11:50:58;;;;;;;30.23;5.45;;;13.30;99.90;;;;;;5094772;28;20105;-87
2023/03/30 11:54:08;;;;;;;24.92;6.25;;;13.50;99.90;;;;;;5115135;28;20054;-87
2023/03/30 11:57:06;;;;;;;39.15;8.15;;;13.50;99.90;;;;;;5111388;28;20054;-86
2023/03/30 12:00:11;;;;;;;25.30;5.20;;;13.40;99.90;;;;;;5113352;28;20047;-86
2023/03/30 12:03:20;;;;;;;24.10;4.57;;;13.50;99.90;;;;;;5110281;28;20131;-87
2023/03/30 12:06:28;;;;;;;29.35;5.28;;;13.40;99.90;;;;;;5089620;28;20062;-87
2023/03/30 12:09:25;;;;;;;24.90;5.07;;;13.60;99.90;;;;;;5094251;28;20048;-86
2023/03/30 12:12:16;;;;;;;30.58;5.20;;;13.50;99.90;;;;;;5065222;28;20537;-83
2023/03/30 12:15:21;;;;;;;35.58;5.43;;;13.40;99.90;;;;;;5111943;28;20796;-84
2023/03/30 12:18:36;;;;;;;25.92;6.90;;;13.30;99.90;;;;;;5109829;28;20543;-85
2023/03/30 12:21:51;;;;;;;32.88;6.25;;;13.20;99.90;;;;;;5083395;28;20048;-85
2023/03/30 12:24:46;;;;;;;36.42;8.00;;;13.10;99.90;;;;;;5113619;28;20043;-82
2023/03/30 12:27:36;;;;;;;23.40;5.35;;;13.20;99.90;;;;;;5099998;28;20054;-85
2023/03/30 12:30:42;;;;;;;28.75;6.35;;;13.10;99.90;;;;;;5095628;28;20055;-83
2023/03/30 12:33:44;;;;;;;28.92;7.15;;;13.20;99.90;;;;;;5109827;28;20056;-85
2023/03/30 12:36:41;;;;;;;28.75;5.70;;;13.10;99.90;;;;;;5096947;28;20048;-86
2023/03/30 12:39:52;;;;;;;25.33;5.00;;;13.10;99.90;;;;;;5110782;28;20044;-88
2023/03/30 12:42:45;;;;;;;27.02;6.53;;;13.10;99.90;;;;;;5115726;28;20487;-83
2023/03/30 12:46:01;;;;;;;31.35;5.65;;;13.20;99.90;;;;;;5082373;28;20399;-87
2023/03/30 12:48:56;;;;;;;40.03;8.13;;;13.40;99.90;;;;;;5098212;28;20104;-85
2023/03/30 12:52:09;;;;;;;40.50;7.25;;;13.70;99.90;;;;;;5114088;28;20047;-86
2023/03/30 12:55:20;;;;;;;29.85;5.35;;;13.90;99.90;;;;;;5116324;28;20047;-84
2023/03/30 12:58:30;;;;;;;28.83;5.65;;;14.00;99.90;;;;;;5113572;28;20533;-86
2023/03/30 13:01:35;;;;;;;29.73;5.55;;;14.40;99.90;;;;;;5094743;28;20063;-84
2023/03/30 13:04:27;;;;;;;32.10;5.53;;;14.50;99.90;;;;;;5115106;28;20082;-83
2023/03/30 13:07:21;;;;;;;37.28;6.93;;;14.90;99.90;;;;;;5119571;28;20078;-85
2023/03/30 13:10:28;;;;;;;28.23;6.05;;;15.10;99.90;;;;;;5114527;28;20063;-86
2023/03/30 13:13:42;;;;;;;22.55;5.30;;;15.40;99.90;;;;;;5112633;28;20044;-85
2023/03/30 13:17:05;;;;;;;29.58;5.25;;;15.50;99.90;;;;;;5111695;28;20442;-84
2023/03/30 13:20:14;;;;;;;35.55;7.05;;;15.90;99.90;;;;;;5098477;28;20051;-82
2023/03/30 13:23:08;;;;;;;26.38;5.40;;;16.20;99.90;;;;;;5106487;28;20052;-83
2023/03/30 13:26:13;;;;;;;19.52;4.97;;;16.30;99.90;;;;;;5113031;28;20063;-89
2023/03/30 13:29:14;;;;;;;26.17;5.88;;;16.80;99.90;;;;;;5099123;28;20055;-82
2023/03/30 13:32:13;;;;;;;22.65;4.82;;;17.10;99.90;;;;;;5078932;28;20047;-84
2023/03/30 13:35:15;;;;;;;24.88;5.68;;;16.70;99.90;;;;;;5114505;28;20075;-87
2023/03/30 13:38:19;;;;;;;31.10;6.13;;;16.70;99.90;;;;;;5113793;28;20039;-85
2023/03/30 13:41:27;;;;;;;28.50;6.97;;;16.30;99.90;;;;;;5115209;28;20047;-83
2023/03/30 13:44:27;;;;;;;33.85;6.30;;;16.50;99.90;;;;;;5114624;28;20055;-86
2023/03/30 13:47:33;;;;;;;28.48;6.95;;;16.70;99.90;;;;;;5095853;28;20143;-82
2023/03/30 13:50:24;;;;;;;21.27;5.53;;;16.50;99.90;;;;;;5111589;28;20152;-87
2023/03/30 13:53:15;;;;;;;34.25;6.03;;;16.90;99.90;;;;;;5122185;28;20076;-85
2023/03/30 13:56:06;;;;;;;26.08;6.35;;;16.40;99.90;;;;;;5111485;28;20404;-84
2023/03/30 13:59:09;;;;;;;25.92;5.90;;;16.60;99.90;;;;;;5113225;28;20147;-88
2023/03/30 14:01:57;;;;;;;30.45;6.88;;;16.70;99.90;;;;;;5113600;28;20051;-84
2023/03/30 14:04:43;;;;;;;33.38;7.15;;;16.80;99.90;;;;;;5114246;28;20138;-85
2023/03/30 14:07:45;;;;;;;27.40;5.63;;;17.10;99.90;;;;;;5114143;28;20097;-84
2023/03/30 14:10:32;;;;;;;26.17;6.03;;;17.30;99.90;;;;;;5101019;28;20052;-85
2023/03/30 14:13:18;;;;;;;28.67;6.57;;;17.50;99.90;;;;;;5115318;28;20082;-85
2023/03/30 14:16:06;;;;;;;25.17;5.10;;;17.10;99.90;;;;;;5112056;28;20480;-86
2023/03/30 14:19:07;;;;;;;31.40;6.20;;;17.40;99.90;;;;;;5115157;28;20043;-86
2023/03/30 14:21:58;;;;;;;33.95;6.13;;;17.10;99.90;;;;;;5091883;28;20060;-83
2023/03/30 14:25:02;;;;;;;30.17;5.55;;;16.60;99.90;;;;;;5073564;28;20137;-86
2023/03/30 14:27:48;;;;;;;32.70;6.78;;;16.80;99.90;;;;;;5090917;28;20586;-86
2023/03/30 14:30:34;;;;;;;30.45;6.38;;;17.70;99.90;;;;;;5090243;28;20403;-86
2023/03/30 14:33:22;;;;;;;30.70;5.68;;;17.60;99.90;;;;;;5098832;28;20094;-85
2023/03/30 14:36:11;;;;;;;30.30;6.53;;;17.10;99.90;;;;;;5094325;28;20091;-83
2023/03/30 14:38:57;;;;;;;28.50;6.25;;;17.50;99.90;;;;;;5092587;28;20044;-89
2023/03/30 14:41:44;;;;;;;24.85;5.65;;;17.00;99.90;;;;;;5092059;28;20571;-81
2023/03/30 14:44:30;;;;;;;27.85;6.00;;;17.20;99.90;;;;;;5065745;28;20048;-86
2023/03/30 14:47:21;;;;;;;26.65;6.22;;;16.60;99.90;;;;;;5095047;28;20108;-87